Time;durP1;ratioP1;P1;durP2;ratioP2;P2;SDS_P1;SDS_P2;PMS_P1;PMS_P2;Temp;Humidity;BMP_temperature;BMP_pressure;BME280_temperature;BME280_humidity;BME280_pressure;Samples;Min_cycle;Max_cycle;Signal;HPM_P1;HPM_P2
2022/03/18 00:03:33;;;;;;;8.55;2.53;;;;;;;;;;8146529;28;20285;-59
2022/03/18 00:07:33;;;;;;;8.45;2.47;;;;;;;;;;8149154;28;20031;-59
2022/03/18 00:11:34;;;;;;;8.93;2.58;;;;;;;;;;8147168;28;20810;-59
2022/03/18 00:15:34;;;;;;;7.82;2.45;;;;;;;;;;8148880;28;20035;-59
2022/03/18 00:19:35;;;;;;;7.45;2.75;;;;;;;;;;8147789;28;20115;-59
2022/03/18 00:23:35;;;;;;;6.43;2.45;;;;;;;;;;8148372;28;20494;-59
2022/03/18 00:27:35;;;;;;;8.10;2.63;;;;;;;;;;8149387;28;20142;-59
2022/03/18 00:31:36;;;;;;;7.28;2.58;;;;;;;;;;8149273;28;20047;-59
2022/03/18 00:35:36;;;;;;;9.65;2.80;;;;;;;;;;8149407;28;20031;-59
2022/03/18 00:39:36;;;;;;;9.90;3.15;;;;;;;;;;8149196;29;20019;-59
2022/03/18 00:43:36;;;;;;;10.73;2.70;;;;;;;;;;8150784;29;20023;-59
2022/03/18 00:52:03;;;;;;;7.28;2.40;;;;;;;;;;8147493;28;20054;-59
2022/03/18 00:56:03;;;;;;;8.70;3.03;;;;;;;;;;8149411;28;20030;-59
2022/03/18 01:00:07;;;;;;;9.63;2.85;;;;;;;;;;8150280;28;20019;-59
2022/03/18 01:04:08;;;;;;;14.07;2.60;;;;;;;;;;8150294;29;20106;-59
2022/03/18 01:08:08;;;;;;;6.80;2.50;;;;;;;;;;8149798;28;20031;-59
2022/03/18 01:12:09;;;;;;;6.20;2.50;;;;;;;;;;8146020;29;20042;-59
2022/03/18 01:16:10;;;;;;;7.20;2.60;;;;;;;;;;8147781;28;20071;-59
2022/03/18 01:20:10;;;;;;;6.32;2.60;;;;;;;;;;8148290;28;20022;-59
2022/03/18 01:24:10;;;;;;;8.55;2.97;;;;;;;;;;8148563;29;20054;-59
2022/03/18 01:28:11;;;;;;;7.20;2.60;;;;;;;;;;8148861;28;20043;-59
2022/03/18 01:32:11;;;;;;;7.18;2.55;;;;;;;;;;8144062;28;20037;-59
2022/03/18 01:36:11;;;;;;;8.60;3.08;;;;;;;;;;8145146;28;20451;-59
2022/03/18 01:40:11;;;;;;;12.63;2.80;;;;;;;;;;8145819;28;20031;-59
2022/03/18 01:44:12;;;;;;;7.70;2.95;;;;;;;;;;8150249;29;20350;-59
2022/03/18 01:48:13;;;;;;;7.95;2.63;;;;;;;;;;8147613;28;20046;-58
2022/03/18 01:52:13;;;;;;;10.30;2.97;;;;;;;;;;8148383;28;20096;-59
2022/03/18 01:56:13;;;;;;;6.45;2.40;;;;;;;;;;8149061;29;20032;-59
2022/03/18 02:00:14;;;;;;;10.77;3.00;;;;;;;;;;8147027;28;20027;-59
2022/03/18 02:04:14;;;;;;;9.02;3.28;;;;;;;;;;8147223;28;20122;-60
2022/03/18 02:08:16;;;;;;;7.80;2.97;;;;;;;;;;8147893;28;20833;-59
2022/03/18 02:12:17;;;;;;;10.20;2.67;;;;;;;;;;8147924;28;20480;-59
2022/03/18 02:16:18;;;;;;;6.35;2.80;;;;;;;;;;8152239;28;20073;-59
2022/03/18 02:20:18;;;;;;;7.38;3.03;;;;;;;;;;8152980;28;20030;-59
2022/03/18 02:24:19;;;;;;;6.10;2.95;;;;;;;;;;8152957;28;20041;-59
2022/03/18 02:28:19;;;;;;;14.75;3.10;;;;;;;;;;8154743;29;20019;-59
2022/03/18 02:32:20;;;;;;;5.85;2.65;;;;;;;;;;8151628;28;20038;-59
2022/03/18 02:36:21;;;;;;;7.40;3.00;;;;;;;;;;8153499;29;20034;-59
2022/03/18 02:40:21;;;;;;;9.82;3.05;;;;;;;;;;8152186;28;20031;-59
2022/03/18 02:44:21;;;;;;;7.97;2.78;;;;;;;;;;8153157;29;20116;-59
2022/03/18 02:48:22;;;;;;;5.28;3.00;;;;;;;;;;8152830;28;20036;-59
2022/03/18 02:52:22;;;;;;;7.70;2.97;;;;;;;;;;8152002;28;20102;-59
2022/03/18 02:56:22;;;;;;;13.30;3.27;;;;;;;;;;8152575;28;20027;-59
2022/03/18 03:00:25;;;;;;;18.90;3.28;;;;;;;;;;8151213;28;20271;-59
2022/03/18 03:04:25;;;;;;;8.57;3.03;;;;;;;;;;8150730;28;20915;-59
2022/03/18 03:08:26;;;;;;;8.82;2.88;;;;;;;;;;8152863;28;22008;-59
2022/03/18 03:12:26;;;;;;;9.07;2.72;;;;;;;;;;8153055;28;20027;-59
2022/03/18 03:16:26;;;;;;;7.32;2.53;;;;;;;;;;8152120;28;20071;-59
2022/03/18 03:20:27;;;;;;;10.70;2.67;;;;;;;;;;8150421;28;20107;-59
2022/03/18 03:24:28;;;;;;;7.10;3.00;;;;;;;;;;8152181;28;20907;-59
2022/03/18 03:28:28;;;;;;;5.82;2.95;;;;;;;;;;8152897;28;20904;-59
2022/03/18 03:32:28;;;;;;;10.88;3.20;;;;;;;;;;8148975;28;20055;-59
2022/03/18 03:36:28;;;;;;;17.17;3.37;;;;;;;;;;8151120;29;20036;-59
2022/03/18 03:40:28;;;;;;;12.30;3.28;;;;;;;;;;8152493;29;20318;-59
2022/03/18 03:44:29;;;;;;;8.55;2.97;;;;;;;;;;8151611;28;20102;-59
2022/03/18 03:48:29;;;;;;;11.30;3.10;;;;;;;;;;8150155;28;20587;-59
2022/03/18 03:52:29;;;;;;;13.07;3.35;;;;;;;;;;8150841;28;20031;-59
2022/03/18 03:56:29;;;;;;;8.70;3.20;;;;;;;;;;8149667;28;20506;-59
2022/03/18 04:00:29;;;;;;;13.77;3.73;;;;;;;;;;8149730;28;20038;-59
2022/03/18 04:04:31;;;;;;;9.38;3.38;;;;;;;;;;8149550;28;20302;-59
2022/03/18 04:08:31;;;;;;;11.50;3.42;;;;;;;;;;8150596;29;20027;-59
2022/03/18 04:12:35;;;;;;;10.13;3.20;;;;;;;;;;8150033;28;20059;-59
2022/03/18 04:16:35;;;;;;;6.80;3.10;;;;;;;;;;8149045;28;20271;-59
2022/03/18 04:20:35;;;;;;;9.90;3.33;;;;;;;;;;8151201;28;20102;-60
2022/03/18 04:24:36;;;;;;;8.38;3.70;;;;;;;;;;8150805;28;20283;-59
2022/03/18 04:28:36;;;;;;;7.45;3.42;;;;;;;;;;8149308;29;20050;-59
2022/03/18 04:32:36;;;;;;;7.40;3.42;;;;;;;;;;8147082;28;20079;-59
2022/03/18 04:36:36;;;;;;;9.35;3.20;;;;;;;;;;8150134;29;20023;-59
2022/03/18 04:40:37;;;;;;;15.88;4.13;;;;;;;;;;8148308;28;20130;-59
2022/03/18 04:44:37;;;;;;;14.45;3.47;;;;;;;;;;8148444;28;20147;-61
2022/03/18 04:48:37;;;;;;;10.93;3.38;;;;;;;;;;8148188;28;20047;-60
2022/03/18 04:52:38;;;;;;;11.50;3.50;;;;;;;;;;8149321;29;20055;-59
2022/03/18 05:00:57;;;;;;;10.38;3.60;;;;;;;;;;8149047;28;20135;-59
2022/03/18 05:04:57;;;;;;;10.25;3.42;;;;;;;;;;8149121;28;20032;-59
2022/03/18 05:08:57;;;;;;;9.60;3.35;;;;;;;;;;8147123;28;20012;-59
2022/03/18 05:12:57;;;;;;;13.15;3.00;;;;;;;;;;8146362;29;20042;-60
2022/03/18 05:16:58;;;;;;;14.07;3.75;;;;;;;;;;8146692;28;20055;-59
2022/03/18 05:20:58;;;;;;;12.98;3.40;;;;;;;;;;8148484;28;20034;-59
2022/03/18 05:24:58;;;;;;;9.40;3.55;;;;;;;;;;8149802;28;20020;-59
2022/03/18 05:28:59;;;;;;;11.48;3.60;;;;;;;;;;8147138;29;20850;-59
2022/03/18 05:32:59;;;;;;;6.30;3.13;;;;;;;;;;8148225;28;20075;-59
2022/03/18 05:36:59;;;;;;;10.63;3.90;;;;;;;;;;8149053;29;20028;-58
2022/03/18 05:40:59;;;;;;;11.23;3.40;;;;;;;;;;8147569;29;20099;-59
2022/03/18 05:45:00;;;;;;;8.70;3.08;;;;;;;;;;8147375;28;20023;-59
2022/03/18 05:49:01;;;;;;;9.35;3.20;;;;;;;;;;8145465;28;20485;-59
2022/03/18 05:53:01;;;;;;;8.55;3.65;;;;;;;;;;8155554;29;20027;-58
2022/03/18 05:57:02;;;;;;;16.40;4.07;;;;;;;;;;8151105;28;20546;-59
2022/03/18 06:01:02;;;;;;;14.10;3.67;;;;;;;;;;8152684;28;20466;-59
2022/03/18 06:05:02;;;;;;;12.77;3.33;;;;;;;;;;8151889;29;20027;-59
2022/03/18 06:13:21;;;;;;;10.10;3.25;;;;;;;;;;8154659;29;20359;-58
2022/03/18 06:17:22;;;;;;;11.88;3.65;;;;;;;;;;8152395;28;20162;-59
2022/03/18 06:21:22;;;;;;;11.60;3.78;;;;;;;;;;8153591;28;20094;-59
2022/03/18 06:25:23;;;;;;;8.00;3.63;;;;;;;;;;8151711;29;21255;-58
2022/03/18 06:29:24;;;;;;;12.32;3.88;;;;;;;;;;8152474;29;20038;-59
2022/03/18 06:33:24;;;;;;;11.75;3.88;;;;;;;;;;8153547;28;20044;-59
2022/03/18 06:37:26;;;;;;;13.88;4.00;;;;;;;;;;8152071;29;20028;-59
2022/03/18 06:41:26;;;;;;;13.25;4.13;;;;;;;;;;8150404;29;20826;-59
2022/03/18 06:45:27;;;;;;;10.95;3.45;;;;;;;;;;8150848;28;20484;-59
2022/03/18 06:49:27;;;;;;;8.75;3.45;;;;;;;;;;8148145;28;20139;-59
2022/03/18 06:53:28;;;;;;;9.70;3.90;;;;;;;;;;8150693;29;20031;-58
2022/03/18 06:57:28;;;;;;;12.43;4.05;;;;;;;;;;8149038;29;20039;-58
2022/03/18 07:01:28;;;;;;;10.55;3.88;;;;;;;;;;8149297;28;20106;-58
2022/03/18 07:05:28;;;;;;;11.40;4.00;;;;;;;;;;8152667;29;20058;-58
2022/03/18 07:09:29;;;;;;;11.10;3.78;;;;;;;;;;8146345;29;20031;-57
2022/03/18 07:13:29;;;;;;;8.27;4.00;;;;;;;;;;8149887;28;20039;-59
2022/03/18 07:21:48;;;;;;;16.90;4.80;;;;;;;;;;8147235;28;20110;-58
2022/03/18 07:25:48;;;;;;;11.63;3.40;;;;;;;;;;8150938;28;20039;-58
2022/03/18 07:29:48;;;;;;;10.40;4.60;;;;;;;;;;8150447;28;20027;-58
2022/03/18 07:33:51;;;;;;;11.60;4.47;;;;;;;;;;8150975;28;20046;-57
2022/03/18 07:37:51;;;;;;;14.88;4.45;;;;;;;;;;8142678;28;20019;-58
2022/03/18 07:41:52;;;;;;;12.75;4.10;;;;;;;;;;8108940;29;1053345;-59
2022/03/18 07:45:52;;;;;;;12.85;3.97;;;;;;;;;;8144091;28;20165;-58
2022/03/18 07:49:52;;;;;;;13.00;3.85;;;;;;;;;;8144671;28;20042;-58
2022/03/18 07:53:52;;;;;;;14.15;4.53;;;;;;;;;;8145446;28;20473;-58
2022/03/18 07:57:53;;;;;;;11.52;4.60;;;;;;;;;;8141016;28;20411;-59
2022/03/18 08:01:53;;;;;;;14.93;4.75;;;;;;;;;;8144208;28;20304;-58
2022/03/18 08:05:53;;;;;;;13.57;4.63;;;;;;;;;;8144138;28;20515;-58
2022/03/18 08:09:53;;;;;;;11.20;4.25;;;;;;;;;;8143759;28;20034;-58
2022/03/18 08:13:54;;;;;;;14.02;4.55;;;;;;;;;;8141116;29;20038;-58
2022/03/18 08:17:54;;;;;;;13.55;4.57;;;;;;;;;;8132969;28;20039;-58
2022/03/18 08:21:54;;;;;;;10.80;4.57;;;;;;;;;;8144343;28;20552;-59
2022/03/18 08:25:54;;;;;;;14.35;4.20;;;;;;;;;;8142358;29;20078;-59
2022/03/18 08:29:59;;;;;;;10.52;4.78;;;;;;;;;;8139647;28;20032;-59
2022/03/18 08:33:59;;;;;;;;;;;;;;;;;;8143256;28;20517;-59
2022/03/18 08:38:00;;;;;;;12.95;4.30;;;;;;;;;;8141864;29;20001;-60
2022/03/18 08:42:00;;;;;;;10.02;4.80;;;;;;;;;;8142532;29;20401;-60
2022/03/18 08:46:00;;;;;;;9.57;4.57;;;;;;;;;;8142751;28;20050;-59
2022/03/18 08:50:00;;;;;;;10.30;4.38;;;;;;;;;;8139726;28;20461;-59
2022/03/18 08:54:02;;;;;;;16.83;4.68;;;;;;;;;;8143501;28;20015;-59
2022/03/18 08:58:04;;;;;;;9.43;4.07;;;;;;;;;;8137468;28;20314;-59
2022/03/18 09:02:04;;;;;;;10.88;4.53;;;;;;;;;;8136347;28;20474;-59
2022/03/18 09:06:06;;;;;;;8.95;4.57;;;;;;;;;;8129680;28;20058;-59
2022/03/18 09:10:07;;;;;;;10.63;4.63;;;;;;;;;;8143702;28;20405;-59
2022/03/18 09:14:07;;;;;;;14.40;4.65;;;;;;;;;;8138057;28;20461;-59
2022/03/18 09:18:07;;;;;;;11.57;4.57;;;;;;;;;;8131032;28;20046;-59
2022/03/18 09:22:08;;;;;;;11.77;4.57;;;;;;;;;;8140664;28;20563;-59
2022/03/18 09:26:08;;;;;;;17.40;5.00;;;;;;;;;;8142758;29;20287;-60
2022/03/18 09:30:09;;;;;;;11.02;4.82;;;;;;;;;;8137202;28;20023;-59
2022/03/18 09:34:09;;;;;;;11.25;4.90;;;;;;;;;;8139483;29;20476;-59
2022/03/18 09:38:09;;;;;;;13.87;4.50;;;;;;;;;;8132099;28;20027;-58
2022/03/18 09:42:10;;;;;;;11.48;5.10;;;;;;;;;;8131284;29;20278;-59
2022/03/18 09:46:11;;;;;;;11.02;4.88;;;;;;;;;;8139000;28;20414;-59
2022/03/18 09:50:12;;;;;;;13.50;5.30;;;;;;;;;;8138896;28;20163;-59
2022/03/18 09:54:13;;;;;;;10.82;5.25;;;;;;;;;;8137334;28;20066;-59
2022/03/18 09:58:13;;;;;;;12.65;5.38;;;;;;;;;;8126668;28;20268;-59
2022/03/18 10:02:40;;;;;;;13.68;5.22;;;;;;;;;;8140237;28;20040;-59
2022/03/18 10:06:43;;;;;;;15.30;5.28;;;;;;;;;;8133754;28;21282;-59
2022/03/18 10:10:47;;;;;;;8.80;5.10;;;;;;;;;;8129059;28;20023;-59
2022/03/18 10:14:47;;;;;;;12.18;5.07;;;;;;;;;;8139701;28;20172;-59
2022/03/18 10:18:48;;;;;;;10.77;4.82;;;;;;;;;;8139393;28;20410;-59
2022/03/18 10:22:48;;;;;;;14.70;5.63;;;;;;;;;;8139603;28;20114;-59
2022/03/18 10:26:50;;;;;;;13.15;5.47;;;;;;;;;;8124998;28;20056;-59
2022/03/18 10:30:50;;;;;;;12.85;5.45;;;;;;;;;;8138121;28;20615;-59
2022/03/18 10:39:20;;;;;;;10.52;5.57;;;;;;;;;;8143115;29;20106;-58
2022/03/18 10:43:20;;;;;;;10.85;4.90;;;;;;;;;;8147367;28;20149;-59
2022/03/18 10:47:30;;;;;;;11.15;5.32;;;;;;;;;;8144607;28;20273;-59
2022/03/18 10:51:30;;;;;;;11.18;5.65;;;;;;;;;;8144554;28;20544;-60
2022/03/18 10:55:33;;;;;;;12.27;5.32;;;;;;;;;;8145830;28;20474;-59
2022/03/18 10:59:35;;;;;;;12.35;5.55;;;;;;;;;;8141229;29;20035;-59
2022/03/18 11:03:35;;;;;;;14.25;6.43;;;;;;;;;;8144248;28;20043;-59
2022/03/18 11:07:41;;;;;;;12.10;5.28;;;;;;;;;;8138222;28;20141;-59
2022/03/18 11:11:41;;;;;;;13.15;5.47;;;;;;;;;;8143695;28;20031;-59
2022/03/18 11:15:43;;;;;;;10.95;5.15;;;;;;;;;;8140040;28;20027;-59
2022/03/18 11:19:44;;;;;;;9.25;5.03;;;;;;;;;;8141860;28;20592;-59
2022/03/18 11:23:45;;;;;;;15.65;5.38;;;;;;;;;;8142042;28;20034;-60
2022/03/18 11:27:46;;;;;;;10.63;5.45;;;;;;;;;;8144298;29;20058;-59
2022/03/18 11:32:05;;;;;;;11.18;5.13;;;;;;;;;;8130282;28;20557;-59
2022/03/18 11:36:05;;;;;;;12.95;5.22;;;;;;;;;;8141653;29;20053;-60
2022/03/18 11:40:23;;;;;;;9.27;4.45;;;;;;;;;;8133581;28;20154;-59
2022/03/18 11:44:40;;;;;;;11.88;4.78;;;;;;;;;;8141381;28;20416;-60
2022/03/18 11:48:46;;;;;;;14.48;5.05;;;;;;;;;;8140401;28;21558;-60
2022/03/18 11:52:55;;;;;;;12.98;5.00;;;;;;;;;;8141426;28;20031;-59
2022/03/18 11:56:57;;;;;;;10.80;5.13;;;;;;;;;;8141341;28;20868;-58
2022/03/18 12:00:57;;;;;;;14.05;4.53;;;;;;;;;;8134259;28;20068;-59
2022/03/18 12:04:58;;;;;;;18.08;4.78;;;;;;;;;;8137810;28;20445;-59
2022/03/18 12:08:59;;;;;;;11.95;4.13;;;;;;;;;;8139125;28;20134;-59
2022/03/18 12:13:03;;;;;;;7.32;4.00;;;;;;;;;;8139570;28;20239;-59
2022/03/18 12:17:03;;;;;;;11.57;4.27;;;;;;;;;;8124330;28;20055;-59
2022/03/18 12:21:03;;;;;;;9.10;3.80;;;;;;;;;;8138398;28;20415;-59
2022/03/18 12:25:04;;;;;;;6.60;3.15;;;;;;;;;;8137806;28;20923;-59
2022/03/18 12:29:05;;;;;;;7.40;3.58;;;;;;;;;;8134329;28;20258;-59
2022/03/18 12:33:06;;;;;;;12.95;3.33;;;;;;;;;;8138169;28;20826;-59
2022/03/18 12:37:17;;;;;;;9.38;3.17;;;;;;;;;;8137880;28;20023;-59
2022/03/18 12:41:21;;;;;;;6.07;3.05;;;;;;;;;;8135753;28;20035;-59
2022/03/18 12:45:29;;;;;;;6.30;2.70;;;;;;;;;;8141198;28;20024;-63
2022/03/18 12:49:30;;;;;;;6.32;2.67;;;;;;;;;;8143385;28;20430;-59
2022/03/18 12:53:33;;;;;;;8.50;2.58;;;;;;;;;;8139183;28;20027;-59
2022/03/18 12:57:38;;;;;;;6.07;2.38;;;;;;;;;;8141554;28;20035;-59
2022/03/18 13:01:49;;;;;;;7.18;2.20;;;;;;;;;;8140731;28;20055;-59
2022/03/18 13:05:50;;;;;;;3.63;1.95;;;;;;;;;;8141951;28;20480;-58
2022/03/18 13:09:50;;;;;;;5.53;2.50;;;;;;;;;;8146257;28;20120;-59
2022/03/18 13:13:51;;;;;;;5.68;2.50;;;;;;;;;;8148205;28;20153;-59
2022/03/18 13:17:51;;;;;;;5.85;2.45;;;;;;;;;;8148089;28;20043;-59
2022/03/18 13:21:51;;;;;;;8.52;2.47;;;;;;;;;;8150429;28;20334;-58
2022/03/18 13:25:51;;;;;;;5.95;2.58;;;;;;;;;;8145356;28;20721;-59
2022/03/18 13:34:11;;;;;;;6.05;2.15;;;;;;;;;;8140825;29;20081;-59
2022/03/18 13:38:14;;;;;;;7.43;2.33;;;;;;;;;;8141598;28;20055;-59
2022/03/18 13:42:26;;;;;;;3.80;2.15;;;;;;;;;;8141192;28;20571;-59
2022/03/18 13:46:27;;;;;;;4.15;2.22;;;;;;;;;;8140513;28;20903;-59
2022/03/18 13:50:44;;;;;;;3.92;1.75;;;;;;;;;;8143373;28;20073;-59
2022/03/18 13:54:47;;;;;;;6.90;2.25;;;;;;;;;;8142162;29;20063;-59
2022/03/18 13:58:47;;;;;;;7.25;2.30;;;;;;;;;;8141922;28;20024;-59
2022/03/18 14:02:58;;;;;;;5.72;2.47;;;;;;;;;;8143781;28;20113;-59
2022/03/18 14:07:01;;;;;;;11.52;2.80;;;;;;;;;;8139960;28;20400;-59
2022/03/18 14:12:08;;;;;;;5.80;2.80;;;;;;;;;;8142717;28;20020;-59
2022/03/18 14:15:22;;;;;;;5.10;2.53;;;;;;;;;;8147394;28;20047;-59
2022/03/18 14:19:44;;;;;;;7.35;3.00;;;;;;;;;;8145093;29;20424;-59
2022/03/18 14:23:46;;;;;;;6.80;3.08;;;;;;;;;;8145670;29;20031;-59
2022/03/18 14:27:48;;;;;;;5.10;2.60;;;;;;;;;;8148605;29;20055;-59
2022/03/18 14:31:48;;;;;;;7.07;3.30;;;;;;;;;;8144720;28;20551;-59
2022/03/18 14:35:49;;;;;;;7.35;3.00;;;;;;;;;;8148025;28;20360;-59
2022/03/18 14:39:49;;;;;;;6.15;2.92;;;;;;;;;;8146843;29;20965;-59
2022/03/18 14:43:49;;;;;;;5.90;2.70;;;;;;;;;;8146959;28;20058;-59
2022/03/18 14:47:50;;;;;;;4.17;2.27;;;;;;;;;;8146590;28;20039;-59
2022/03/18 14:51:50;;;;;;;4.65;1.90;;;;;;;;;;8145992;28;21133;-60
2022/03/18 15:00:09;;;;;;;4.40;2.00;;;;;;;;;;8148177;28;20759;-59
2022/03/18 15:04:09;;;;;;;4.13;1.58;;;;;;;;;;8143323;29;20035;-59
2022/03/18 15:08:10;;;;;;;4.78;2.00;;;;;;;;;;8146869;29;20738;-59
2022/03/18 15:12:11;;;;;;;3.83;1.67;;;;;;;;;;8143828;28;20062;-59
2022/03/18 15:16:11;;;;;;;5.63;1.58;;;;;;;;;;8144771;28;20146;-59
2022/03/18 15:20:12;;;;;;;3.50;1.73;;;;;;;;;;8144711;28;20467;-59
2022/03/18 15:24:12;;;;;;;2.65;1.50;;;;;;;;;;8145535;29;20071;-59
2022/03/18 15:28:18;;;;;;;3.03;1.50;;;;;;;;;;8146092;28;20393;-59
2022/03/18 15:32:18;;;;;;;4.63;1.63;;;;;;;;;;8145618;28;20098;-59
2022/03/18 15:36:19;;;;;;;7.55;1.70;;;;;;;;;;8145337;29;20023;-59
2022/03/18 15:40:19;;;;;;;3.33;1.60;;;;;;;;;;8142904;29;20505;-58
2022/03/18 15:44:20;;;;;;;4.35;1.92;;;;;;;;;;8145745;28;20516;-59
2022/03/18 15:48:21;;;;;;;5.90;1.60;;;;;;;;;;8144654;28;20035;-58
2022/03/18 15:52:21;;;;;;;5.75;1.92;;;;;;;;;;8143622;28;20321;-58
2022/03/18 15:56:21;;;;;;;4.23;1.50;;;;;;;;;;8144353;28;20027;-59
2022/03/18 16:00:22;;;;;;;3.38;1.50;;;;;;;;;;8141816;28;20118;-58
2022/03/18 16:04:23;;;;;;;5.10;1.60;;;;;;;;;;8141272;28;20094;-59
2022/03/18 16:08:23;;;;;;;5.13;1.55;;;;;;;;;;8142711;28;20214;-59
2022/03/18 16:12:24;;;;;;;4.57;1.40;;;;;;;;;;8138943;28;20518;-58
2022/03/18 16:16:25;;;;;;;3.65;1.67;;;;;;;;;;8141261;28;20071;-58
2022/03/18 16:20:25;;;;;;;4.03;1.55;;;;;;;;;;8139075;28;20541;-59
2022/03/18 16:24:25;;;;;;;3.25;1.52;;;;;;;;;;8139551;29;20059;-59
2022/03/18 16:28:25;;;;;;;6.50;1.85;;;;;;;;;;8140977;29;20027;-58
2022/03/18 16:32:26;;;;;;;3.35;2.00;;;;;;;;;;8137740;28;20118;-59
2022/03/18 16:36:26;;;;;;;3.78;1.70;;;;;;;;;;8142182;28;20023;-59
2022/03/18 16:40:26;;;;;;;4.28;1.70;;;;;;;;;;8136687;29;20058;-58
2022/03/18 16:44:26;;;;;;;5.18;1.92;;;;;;;;;;8138798;28;20467;-58
2022/03/18 16:52:45;;;;;;;3.03;1.48;;;;;;;;;;8139124;29;20530;-59
2022/03/18 16:56:46;;;;;;;4.95;1.90;;;;;;;;;;8139462;28;20051;-58
2022/03/18 17:00:46;;;;;;;4.68;1.77;;;;;;;;;;8138190;28;20035;-58
2022/03/18 17:04:47;;;;;;;5.85;1.77;;;;;;;;;;8136615;29;20027;-58
2022/03/18 17:08:47;;;;;;;4.45;1.90;;;;;;;;;;8135634;28;20027;-58
2022/03/18 17:12:47;;;;;;;7.82;1.80;;;;;;;;;;8139658;29;20428;-58
2022/03/18 17:16:48;;;;;;;6.23;1.77;;;;;;;;;;8137598;28;20066;-58
2022/03/18 17:20:49;;;;;;;3.38;1.73;;;;;;;;;;8135289;29;20385;-59
2022/03/18 17:24:50;;;;;;;7.85;2.20;;;;;;;;;;8139898;28;20023;-58
2022/03/18 17:28:50;;;;;;;4.85;1.95;;;;;;;;;;8136130;29;20053;-58
2022/03/18 17:32:50;;;;;;;4.00;1.98;;;;;;;;;;8138280;28;20823;-58
2022/03/18 17:36:50;;;;;;;4.78;2.13;;;;;;;;;;8138780;29;20034;-58
2022/03/18 17:40:51;;;;;;;4.03;1.90;;;;;;;;;;8137326;28;20106;-59
2022/03/18 17:44:52;;;;;;;4.75;1.88;;;;;;;;;;8144165;28;20925;-59
2022/03/18 17:48:52;;;;;;;10.10;2.30;;;;;;;;;;8144584;28;20039;-58
2022/03/18 17:52:52;;;;;;;5.35;1.67;;;;;;;;;;8146469;29;20023;-58
2022/03/18 17:56:53;;;;;;;4.10;1.80;;;;;;;;;;8145294;28;20047;-59
2022/03/18 18:00:54;;;;;;;4.93;1.92;;;;;;;;;;8144011;28;20094;-58
2022/03/18 18:04:54;;;;;;;6.53;1.95;;;;;;;;;;8143343;29;20027;-58
2022/03/18 18:08:54;;;;;;;3.63;1.80;;;;;;;;;;8144804;28;20026;-58
2022/03/18 18:12:57;;;;;;;5.95;2.25;;;;;;;;;;8144781;29;20059;-58
2022/03/18 18:16:57;;;;;;;4.28;1.80;;;;;;;;;;8143138;28;20035;-58
2022/03/18 18:25:17;;;;;;;3.65;1.77;;;;;;;;;;8142322;29;20819;-58
2022/03/18 18:29:17;;;;;;;4.72;1.98;;;;;;;;;;8141319;29;20031;-58
2022/03/18 18:33:17;;;;;;;7.72;2.13;;;;;;;;;;8141143;28;20525;-59
2022/03/18 18:37:18;;;;;;;7.05;2.10;;;;;;;;;;8144418;29;20485;-58
2022/03/18 18:41:18;;;;;;;8.55;2.10;;;;;;;;;;8141161;29;20035;-58
2022/03/18 18:45:18;;;;;;;2.90;1.85;;;;;;;;;;8139317;28;20038;-59
2022/03/18 18:49:19;;;;;;;6.38;2.00;;;;;;;;;;8142869;29;20270;-58
2022/03/18 18:53:20;;;;;;;6.38;1.83;;;;;;;;;;8138342;28;20480;-58
2022/03/18 18:57:23;;;;;;;3.63;2.22;;;;;;;;;;8141900;28;20472;-58
2022/03/18 19:01:23;;;;;;;8.57;2.08;;;;;;;;;;8141090;28;20569;-58
2022/03/18 19:05:24;;;;;;;3.72;1.80;;;;;;;;;;8140138;28;20026;-58
2022/03/18 19:09:24;;;;;;;5.22;1.98;;;;;;;;;;8139651;28;20481;-58
2022/03/18 19:13:24;;;;;;;4.95;1.98;;;;;;;;;;8141678;29;20479;-58
2022/03/18 19:17:25;;;;;;;4.78;1.88;;;;;;;;;;8139929;28;20474;-58
2022/03/18 19:21:29;;;;;;;4.25;1.83;;;;;;;;;;8140640;29;20024;-58
2022/03/18 19:25:30;;;;;;;8.15;2.25;;;;;;;;;;8139326;28;20036;-58
2022/03/18 19:29:30;;;;;;;6.10;2.08;;;;;;;;;;8140580;29;20035;-57
2022/03/18 19:33:30;;;;;;;4.07;2.23;;;;;;;;;;8141286;28;20154;-58
2022/03/18 19:37:31;;;;;;;4.97;2.03;;;;;;;;;;8141920;28;20279;-58
2022/03/18 19:41:31;;;;;;;5.22;1.95;;;;;;;;;;8140834;29;20401;-58
2022/03/18 19:45:34;;;;;;;3.60;2.10;;;;;;;;;;8141131;28;20043;-58
2022/03/18 19:49:34;;;;;;;3.13;1.90;;;;;;;;;;8141103;28;20514;-58
2022/03/18 19:53:35;;;;;;;5.50;1.90;;;;;;;;;;8141315;28;20028;-58
2022/03/18 20:01:53;;;;;;;3.65;1.77;;;;;;;;;;8138723;28;20392;-58
2022/03/18 20:05:54;;;;;;;5.72;2.10;;;;;;;;;;8140000;28;20051;-58
2022/03/18 20:09:54;;;;;;;6.78;2.00;;;;;;;;;;8139148;28;20027;-58
2022/03/18 20:13:54;;;;;;;5.05;2.10;;;;;;;;;;8140470;28;20091;-58
2022/03/18 20:17:55;;;;;;;6.35;2.08;;;;;;;;;;8139676;28;20523;-58
2022/03/18 20:21:55;;;;;;;7.90;2.00;;;;;;;;;;8139219;29;20442;-58
2022/03/18 20:25:57;;;;;;;4.13;1.92;;;;;;;;;;8138954;28;20019;-58
2022/03/18 20:29:57;;;;;;;3.72;2.15;;;;;;;;;;8139586;29;20047;-56
2022/03/18 20:33:57;;;;;;;4.72;2.17;;;;;;;;;;8137379;28;20066;-58
2022/03/18 20:37:57;;;;;;;7.45;2.30;;;;;;;;;;8140184;29;20623;-58
2022/03/18 20:41:58;;;;;;;4.43;2.35;;;;;;;;;;8138044;29;20470;-58
2022/03/18 20:45:58;;;;;;;7.60;2.10;;;;;;;;;;8139201;28;20331;-58
2022/03/18 20:50:00;;;;;;;5.53;2.00;;;;;;;;;;8138958;28;20552;-58
2022/03/18 20:54:00;;;;;;;8.27;2.33;;;;;;;;;;8138866;28;20060;-58
2022/03/18 20:58:01;;;;;;;6.53;2.20;;;;;;;;;;8140234;28;20367;-58
2022/03/18 21:02:01;;;;;;;6.63;2.30;;;;;;;;;;8138574;28;20036;-58
2022/03/18 21:06:01;;;;;;;6.55;2.53;;;;;;;;;;8138076;29;20404;-58
2022/03/18 21:10:01;;;;;;;7.57;2.30;;;;;;;;;;8137876;28;20059;-58
2022/03/18 21:14:02;;;;;;;6.97;2.47;;;;;;;;;;8140589;28;20055;-58
2022/03/18 21:18:02;;;;;;;6.22;2.45;;;;;;;;;;8136526;28;20368;-58
2022/03/18 21:22:02;;;;;;;8.43;2.65;;;;;;;;;;8139347;28;20029;-58
2022/03/18 21:30:46;;;;;;;7.03;2.65;;;;;;;;;;8126924;28;20351;-58
2022/03/18 21:34:47;;;;;;;6.63;2.80;;;;;;;;;;8138735;28;20023;-58
2022/03/18 21:38:47;;;;;;;6.97;3.08;;;;;;;;;;8139496;28;20054;-58
2022/03/18 21:42:47;;;;;;;7.28;3.40;;;;;;;;;;8136610;28;20039;-58
2022/03/18 21:46:47;;;;;;;5.40;2.90;;;;;;;;;;8145896;28;20119;-58
2022/03/18 21:50:47;;;;;;;6.60;3.65;;;;;;;;;;8139495;28;20031;-57
2022/03/18 21:54:48;;;;;;;5.93;3.10;;;;;;;;;;8143342;28;20028;-58
2022/03/18 21:58:48;;;;;;;6.13;3.30;;;;;;;;;;8138765;28;20082;-57
2022/03/18 22:02:48;;;;;;;8.02;3.50;;;;;;;;;;8138128;28;20364;-58
2022/03/18 22:06:48;;;;;;;8.43;3.30;;;;;;;;;;8138168;28;20107;-58
2022/03/18 22:10:49;;;;;;;8.15;3.63;;;;;;;;;;8138782;28;20507;-58
2022/03/18 22:14:49;;;;;;;7.60;4.07;;;;;;;;;;8136513;28;20034;-58
2022/03/18 22:18:50;;;;;;;8.93;3.58;;;;;;;;;;8136859;28;20068;-58
2022/03/18 22:22:50;;;;;;;9.35;3.78;;;;;;;;;;8140156;28;20028;-58
2022/03/18 22:26:51;;;;;;;7.00;3.40;;;;;;;;;;8138904;28;20449;-58
2022/03/18 22:30:51;;;;;;;8.40;4.00;;;;;;;;;;8139393;28;20039;-58
2022/03/18 22:34:51;;;;;;;8.50;3.97;;;;;;;;;;8145771;28;20029;-58
2022/03/18 22:38:51;;;;;;;7.47;4.15;;;;;;;;;;8142687;29;20275;-58
2022/03/18 22:42:52;;;;;;;7.55;3.97;;;;;;;;;;8147012;28;20404;-58
2022/03/18 22:46:53;;;;;;;7.60;3.92;;;;;;;;;;8144973;28;20590;-58
2022/03/18 22:50:54;;;;;;;12.05;3.83;;;;;;;;;;8145778;28;20240;-58
2022/03/18 22:54:54;;;;;;;7.25;3.42;;;;;;;;;;8145956;28;20463;-58
2022/03/18 22:58:54;;;;;;;7.43;3.25;;;;;;;;;;8146526;28;20488;-58
2022/03/18 23:02:55;;;;;;;7.13;3.40;;;;;;;;;;8144457;28;20082;-58
2022/03/18 23:06:55;;;;;;;9.52;3.22;;;;;;;;;;8144367;29;20584;-58
2022/03/18 23:15:15;;;;;;;7.47;3.05;;;;;;;;;;8143365;28;20034;-58
2022/03/18 23:19:17;;;;;;;7.72;3.47;;;;;;;;;;8144665;28;20023;-58
2022/03/18 23:23:17;;;;;;;9.77;3.20;;;;;;;;;;8145677;28;20038;-58
2022/03/18 23:27:17;;;;;;;7.25;3.63;;;;;;;;;;8144423;28;20437;-58
2022/03/18 23:31:17;;;;;;;6.57;3.30;;;;;;;;;;8144167;28;20040;-58
2022/03/18 23:35:18;;;;;;;7.93;3.20;;;;;;;;;;8144850;28;20579;-58
2022/03/18 23:39:18;;;;;;;7.43;3.28;;;;;;;;;;8141418;28;20565;-58
2022/03/18 23:43:18;;;;;;;5.57;3.00;;;;;;;;;;8142471;28;20050;-58
2022/03/18 23:47:18;;;;;;;5.35;3.03;;;;;;;;;;8143957;28;20058;-58
2022/03/18 23:51:19;;;;;;;12.55;3.30;;;;;;;;;;8141840;28;20102;-58
2022/03/18 23:55:19;;;;;;;9.65;3.65;;;;;;;;;;8145707;28;20031;-58
2022/03/18 23:59:19;;;;;;;6.85;3.67;;;;;;;;;;8145030;29;20046;-58
